ADZ22 UHMP-UHMA
Flight info
| Callsign | ADZ22 |
|---|---|
| Flight time | 2h 6m |
| Altitude | 17000 |
| Route | N0230F170 ARBOM W80 GERBI |
| Aircraft | AN24/M-VGDW/C |
Departure
| Time | 2026-04-19 07:47 |
|---|---|
| Airport | Pevek Airport (UHMP) |
Arrival
| Time | 2026-04-19 09:54 |
|---|---|
| Airport | Ugolny Yuri Ryktheu Airport (UHMA) |
| Time | Latitude | Longitude | Altitude | Speed | Heading |
|---|---|---|---|---|---|
| 2026-04-19 07:18 | 69.78793 | 170.60144 | 10 ft | 0 kts | 308° |
| 2026-04-19 07:34 | 69.78793 | 170.60143 | 10 ft | 0 kts | 310° |
| 2026-04-19 07:34 | 69.78796 | 170.60139 | 10 ft | 0 kts | 354° |
| 2026-04-19 07:35 | 69.78804 | 170.60135 | 10 ft | 4 kts | 343° |
| 2026-04-19 07:36 | 69.78807 | 170.60132 | 10 ft | 0 kts | 338° |
| 2026-04-19 07:36 | 69.78839 | 170.60004 | 10 ft | 11 kts | 292° |
| 2026-04-19 07:36 | 69.78841 | 170.59837 | 10 ft | 6 kts | 260° |
| 2026-04-19 07:36 | 69.78834 | 170.59741 | 10 ft | 3 kts | 257° |
| 2026-04-19 07:37 | 69.78828 | 170.59677 | 10 ft | 3 kts | 258° |
| 2026-04-19 07:37 | 69.78828 | 170.59671 | 10 ft | 0 kts | 258° |
| 2026-04-19 07:38 | 69.78828 | 170.59668 | 10 ft | 0 kts | 257° |
| 2026-04-19 07:38 | 69.78814 | 170.59480 | 10 ft | 12 kts | 231° |
| 2026-04-19 07:39 | 69.78753 | 170.59390 | 10 ft | 7 kts | 179° |
| 2026-04-19 07:39 | 69.78711 | 170.59412 | 10 ft | 4 kts | 166° |
| 2026-04-19 07:39 | 69.78667 | 170.59441 | 10 ft | 12 kts | 167° |
| 2026-04-19 07:39 | 69.78552 | 170.59525 | 10 ft | 14 kts | 166° |
| 2026-04-19 07:40 | 69.78469 | 170.59575 | 10 ft | 11 kts | 169° |
| 2026-04-19 07:40 | 69.78345 | 170.59666 | 10 ft | 17 kts | 165° |
| 2026-04-19 07:40 | 69.78252 | 170.59731 | 10 ft | 11 kts | 167° |
| 2026-04-19 07:40 | 69.78172 | 170.59776 | 10 ft | 20 kts | 168° |
| 2026-04-19 07:41 | 69.77967 | 170.59918 | 10 ft | 33 kts | 166° |
| 2026-04-19 07:41 | 69.77786 | 170.60034 | 10 ft | 20 kts | 166° |
| 2026-04-19 07:41 | 69.77676 | 170.60109 | 10 ft | 12 kts | 166° |
| 2026-04-19 07:41 | 69.77604 | 170.60156 | 10 ft | 8 kts | 166° |
| 2026-04-19 07:42 | 69.77533 | 170.60202 | 10 ft | 18 kts | 164° |
| 2026-04-19 07:42 | 69.77414 | 170.60286 | 10 ft | 14 kts | 168° |
| 2026-04-19 07:42 | 69.77336 | 170.60347 | 10 ft | 8 kts | 149° |
| 2026-04-19 07:42 | 69.77313 | 170.60405 | 10 ft | 0 kts | 133° |
| 2026-04-19 07:43 | 69.77303 | 170.60435 | 10 ft | 5 kts | 127° |
| 2026-04-19 07:43 | 69.77297 | 170.60458 | 10 ft | 3 kts | 130° |
| 2026-04-19 07:43 | 69.77269 | 170.60507 | 10 ft | 1 kts | 258° |
| 2026-04-19 07:44 | 69.77267 | 170.60487 | 10 ft | 1 kts | 238° |
| 2026-04-19 07:44 | 69.77259 | 170.60437 | 10 ft | 5 kts | 257° |
| 2026-04-19 07:44 | 69.77264 | 170.60390 | 10 ft | 0 kts | 348° |
| 2026-04-19 07:45 | 69.77268 | 170.60387 | 10 ft | 7 kts | 346° |
| 2026-04-19 07:45 | 69.77537 | 170.60375 | 10 ft | 65 kts | 0° |
| 2026-04-19 07:46 | 69.78104 | 170.60164 | 10 ft | 97 kts | 348° |
| 2026-04-19 07:46 | 69.78820 | 170.59459 | 11 ft | 120 kts | 339° |
| 2026-04-19 07:46 | 69.79581 | 170.58109 | 172 ft | 130 kts | 340° |
| 2026-04-19 07:46 | 69.80398 | 170.56845 | 310 ft | 147 kts | 346° |
| 2026-04-19 07:47 | 69.81386 | 170.55460 | 407 ft | 168 kts | 345° |
| 2026-04-19 07:47 | 69.82504 | 170.53857 | 509 ft | 185 kts | 344° |
| 2026-04-19 07:47 | 69.83648 | 170.52133 | 927 ft | 184 kts | 342° |
| 2026-04-19 07:47 | 69.84779 | 170.50539 | 1338 ft | 181 kts | 346° |
| 2026-04-19 07:48 | 69.85942 | 170.49046 | 1717 ft | 181 kts | 346° |
| 2026-04-19 07:48 | 69.87065 | 170.47575 | 2031 ft | 177 kts | 346° |
| 2026-04-19 07:48 | 69.88187 | 170.46075 | 2312 ft | 176 kts | 346° |
| 2026-04-19 07:48 | 69.89290 | 170.44594 | 2585 ft | 176 kts | 346° |
| 2026-04-19 07:49 | 69.90398 | 170.43112 | 2839 ft | 176 kts | 346° |
| 2026-04-19 07:49 | 69.91510 | 170.41563 | 3084 ft | 181 kts | 338° |
| 2026-04-19 07:49 | 69.92451 | 170.39015 | 3314 ft | 194 kts | 311° |
| 2026-04-19 07:49 | 69.92997 | 170.35319 | 3533 ft | 203 kts | 283° |
| 2026-04-19 07:50 | 69.92993 | 170.31210 | 3726 ft | 206 kts | 255° |
| 2026-04-19 07:50 | 69.92432 | 170.27417 | 3924 ft | 203 kts | 228° |
| 2026-04-19 07:50 | 69.91448 | 170.24690 | 4134 ft | 194 kts | 202° |
| 2026-04-19 07:50 | 69.90219 | 170.23410 | 4361 ft | 181 kts | 176° |
| 2026-04-19 07:51 | 69.89030 | 170.23734 | 4596 ft | 169 kts | 152° |
| 2026-04-19 07:51 | 69.88068 | 170.25456 | 4844 ft | 159 kts | 130° |
| 2026-04-19 07:51 | 69.87387 | 170.27946 | 5104 ft | 156 kts | 121° |
| 2026-04-19 07:51 | 69.86749 | 170.30472 | 5343 ft | 157 kts | 125° |
| 2026-04-19 07:52 | 69.86053 | 170.32945 | 5575 ft | 158 kts | 126° |
| 2026-04-19 07:52 | 69.85350 | 170.35413 | 5806 ft | 159 kts | 127° |
| 2026-04-19 07:52 | 69.84646 | 170.37851 | 6035 ft | 160 kts | 128° |
| 2026-04-19 07:52 | 69.83923 | 170.40326 | 6268 ft | 160 kts | 128° |
| 2026-04-19 07:53 | 69.83201 | 170.42769 | 6498 ft | 161 kts | 129° |
| 2026-04-19 07:53 | 69.82458 | 170.45247 | 6729 ft | 162 kts | 130° |
| 2026-04-19 07:53 | 69.81713 | 170.47707 | 6957 ft | 163 kts | 130° |
| 2026-04-19 07:53 | 69.80962 | 170.50153 | 7182 ft | 163 kts | 131° |
| 2026-04-19 07:54 | 69.80207 | 170.52583 | 7403 ft | 164 kts | 132° |
| 2026-04-19 07:54 | 69.79433 | 170.55045 | 7625 ft | 165 kts | 133° |
| 2026-04-19 07:54 | 69.78657 | 170.57481 | 7843 ft | 166 kts | 133° |
| 2026-04-19 07:54 | 69.77838 | 170.59850 | 8068 ft | 166 kts | 137° |
| 2026-04-19 07:55 | 69.76985 | 170.62074 | 8278 ft | 167 kts | 138° |
| 2026-04-19 07:55 | 69.76106 | 170.64329 | 8484 ft | 169 kts | 139° |
| 2026-04-19 07:55 | 69.75227 | 170.66565 | 8684 ft | 171 kts | 140° |
| 2026-04-19 07:55 | 69.74309 | 170.68828 | 8890 ft | 172 kts | 144° |
| 2026-04-19 07:56 | 69.73341 | 170.70804 | 9100 ft | 173 kts | 146° |
| 2026-04-19 07:56 | 69.72366 | 170.72876 | 9306 ft | 174 kts | 146° |
| 2026-04-19 07:56 | 69.71395 | 170.74936 | 9507 ft | 176 kts | 146° |
| 2026-04-19 07:56 | 69.70393 | 170.77029 | 9714 ft | 177 kts | 148° |
| 2026-04-19 07:57 | 69.69367 | 170.78955 | 9920 ft | 177 kts | 149° |
| 2026-04-19 07:57 | 69.68330 | 170.80910 | 10120 ft | 179 kts | 148° |
| 2026-04-19 07:57 | 69.67293 | 170.82884 | 10320 ft | 180 kts | 148° |
| 2026-04-19 07:57 | 69.66252 | 170.84882 | 10519 ft | 181 kts | 148° |
| 2026-04-19 07:58 | 69.65206 | 170.86896 | 10717 ft | 182 kts | 148° |
| 2026-04-19 07:58 | 69.64150 | 170.88931 | 10917 ft | 183 kts | 148° |
| 2026-04-19 07:58 | 69.63082 | 170.90981 | 11121 ft | 184 kts | 148° |
| 2026-04-19 07:58 | 69.62021 | 170.92982 | 11320 ft | 184 kts | 148° |
| 2026-04-19 07:59 | 69.60944 | 170.94969 | 11518 ft | 185 kts | 149° |
| 2026-04-19 07:59 | 69.59816 | 170.96768 | 11719 ft | 185 kts | 151° |
| 2026-04-19 07:59 | 69.58691 | 170.98514 | 11901 ft | 187 kts | 150° |
| 2026-04-19 07:59 | 69.57536 | 171.00302 | 12084 ft | 188 kts | 150° |
| 2026-04-19 08:00 | 69.56385 | 171.02084 | 12265 ft | 189 kts | 148° |
| 2026-04-19 08:00 | 69.55262 | 171.04076 | 12452 ft | 190 kts | 147° |
| 2026-04-19 08:00 | 69.54131 | 171.06094 | 12621 ft | 191 kts | 147° |
| 2026-04-19 08:00 | 69.53002 | 171.08078 | 12787 ft | 193 kts | 147° |
| 2026-04-19 08:01 | 69.51841 | 171.10098 | 12954 ft | 194 kts | 147° |
| 2026-04-19 08:01 | 69.50687 | 171.12109 | 13116 ft | 195 kts | 147° |
| 2026-04-19 08:01 | 69.49539 | 171.14110 | 13279 ft | 196 kts | 147° |
| 2026-04-19 08:01 | 69.48377 | 171.16139 | 13447 ft | 196 kts | 147° |
| 2026-04-19 08:02 | 69.47207 | 171.18176 | 13616 ft | 196 kts | 147° |
| 2026-04-19 08:02 | 69.46034 | 171.20212 | 13783 ft | 196 kts | 147° |
| 2026-04-19 08:02 | 69.44878 | 171.22215 | 13946 ft | 196 kts | 147° |
| 2026-04-19 08:02 | 69.43704 | 171.24246 | 14110 ft | 196 kts | 147° |
| 2026-04-19 08:03 | 69.42548 | 171.26242 | 14268 ft | 196 kts | 147° |
| 2026-04-19 08:03 | 69.41375 | 171.28262 | 14425 ft | 196 kts | 147° |
| 2026-04-19 08:03 | 69.40211 | 171.30263 | 14578 ft | 196 kts | 147° |
| 2026-04-19 08:03 | 69.39040 | 171.32271 | 14728 ft | 196 kts | 147° |
| 2026-04-19 08:04 | 69.37882 | 171.34251 | 14873 ft | 196 kts | 147° |
| 2026-04-19 08:04 | 69.36703 | 171.36264 | 15019 ft | 196 kts | 147° |
| 2026-04-19 08:04 | 69.35545 | 171.38238 | 15159 ft | 196 kts | 147° |
| 2026-04-19 08:04 | 69.34377 | 171.40222 | 15299 ft | 196 kts | 147° |
| 2026-04-19 08:05 | 69.33199 | 171.42162 | 15441 ft | 196 kts | 151° |
| 2026-04-19 08:05 | 69.31982 | 171.43875 | 15581 ft | 196 kts | 151° |
| 2026-04-19 08:05 | 69.30763 | 171.45586 | 15710 ft | 196 kts | 151° |
| 2026-04-19 08:05 | 69.29548 | 171.47302 | 15807 ft | 198 kts | 151° |
| 2026-04-19 08:06 | 69.28307 | 171.49057 | 15904 ft | 200 kts | 151° |
| 2026-04-19 08:06 | 69.27052 | 171.50825 | 16014 ft | 201 kts | 151° |
| 2026-04-19 08:06 | 69.25799 | 171.52591 | 16108 ft | 203 kts | 151° |
| 2026-04-19 08:06 | 69.24545 | 171.54355 | 16206 ft | 204 kts | 151° |
| 2026-04-19 08:07 | 69.23274 | 171.56142 | 16313 ft | 205 kts | 151° |
| 2026-04-19 08:07 | 69.21989 | 171.57960 | 16426 ft | 205 kts | 149° |
| 2026-04-19 08:07 | 69.20770 | 171.60010 | 16553 ft | 204 kts | 146° |
| 2026-04-19 08:07 | 69.19581 | 171.62117 | 16661 ft | 205 kts | 146° |
| 2026-04-19 08:08 | 69.18372 | 171.64238 | 16772 ft | 205 kts | 146° |
| 2026-04-19 08:08 | 69.17152 | 171.66368 | 16877 ft | 205 kts | 147° |
| 2026-04-19 08:08 | 69.15940 | 171.68497 | 16976 ft | 206 kts | 147° |
| 2026-04-19 08:08 | 69.14729 | 171.70634 | 17035 ft | 209 kts | 147° |
| 2026-04-19 08:09 | 69.13476 | 171.72855 | 17004 ft | 216 kts | 147° |
| 2026-04-19 08:09 | 69.12189 | 171.75140 | 16972 ft | 221 kts | 147° |
| 2026-04-19 08:09 | 69.10886 | 171.77458 | 16971 ft | 221 kts | 147° |
| 2026-04-19 08:09 | 69.09570 | 171.79611 | 16966 ft | 222 kts | 149° |
| 2026-04-19 08:10 | 69.08222 | 171.81772 | 16962 ft | 222 kts | 148° |
| 2026-04-19 08:10 | 69.06896 | 171.83923 | 16967 ft | 222 kts | 148° |
| 2026-04-19 08:10 | 69.05560 | 171.86098 | 16971 ft | 222 kts | 148° |
| 2026-04-19 08:10 | 69.04220 | 171.88275 | 16970 ft | 222 kts | 149° |
| 2026-04-19 08:11 | 69.02879 | 171.90446 | 16967 ft | 223 kts | 149° |
| 2026-04-19 08:11 | 69.01543 | 171.92606 | 16972 ft | 223 kts | 149° |
| 2026-04-19 08:11 | 69.00208 | 171.94762 | 16969 ft | 223 kts | 149° |
| 2026-04-19 08:11 | 68.98859 | 171.96935 | 16964 ft | 223 kts | 149° |
| 2026-04-19 08:12 | 68.97510 | 171.99107 | 16971 ft | 223 kts | 149° |
| 2026-04-19 08:12 | 68.96182 | 172.01244 | 16967 ft | 223 kts | 149° |
| 2026-04-19 08:12 | 68.94838 | 172.03400 | 16968 ft | 224 kts | 149° |
| 2026-04-19 08:12 | 68.93489 | 172.05563 | 16973 ft | 223 kts | 149° |
| 2026-04-19 08:13 | 68.92150 | 172.07706 | 16966 ft | 224 kts | 149° |
| 2026-04-19 08:13 | 68.90791 | 172.09880 | 16967 ft | 224 kts | 149° |
| 2026-04-19 08:13 | 68.89443 | 172.12030 | 16957 ft | 225 kts | 149° |
| 2026-04-19 08:13 | 68.88078 | 172.14177 | 16939 ft | 225 kts | 149° |
| 2026-04-19 08:14 | 68.86724 | 172.16281 | 16983 ft | 223 kts | 149° |
| 2026-04-19 08:14 | 68.84007 | 172.20459 | 16973 ft | 224 kts | 149° |
| 2026-04-19 08:14 | 68.82646 | 172.22533 | 16968 ft | 224 kts | 149° |
| 2026-04-19 08:15 | 68.81282 | 172.24597 | 16965 ft | 225 kts | 149° |
| 2026-04-19 08:15 | 68.79894 | 172.26685 | 16971 ft | 224 kts | 149° |
| 2026-04-19 08:15 | 68.78526 | 172.28729 | 16965 ft | 225 kts | 149° |
| 2026-04-19 08:15 | 68.77159 | 172.30757 | 16968 ft | 225 kts | 149° |
| 2026-04-19 08:16 | 68.75783 | 172.32790 | 16972 ft | 224 kts | 150° |
| 2026-04-19 08:16 | 68.74403 | 172.34811 | 16966 ft | 225 kts | 150° |
| 2026-04-19 08:16 | 68.73028 | 172.36822 | 16972 ft | 225 kts | 149° |
| 2026-04-19 08:16 | 68.71674 | 172.39009 | 16970 ft | 225 kts | 147° |
| 2026-04-19 08:17 | 68.70333 | 172.41200 | 16961 ft | 225 kts | 148° |
| 2026-04-19 08:17 | 68.68992 | 172.43361 | 16967 ft | 225 kts | 148° |
| 2026-04-19 08:17 | 68.67641 | 172.45525 | 16972 ft | 225 kts | 147° |
| 2026-04-19 08:17 | 68.66282 | 172.47704 | 16966 ft | 225 kts | 147° |
| 2026-04-19 08:18 | 68.64950 | 172.49838 | 16971 ft | 225 kts | 147° |
| 2026-04-19 08:18 | 68.63599 | 172.52000 | 16969 ft | 225 kts | 147° |
| 2026-04-19 08:18 | 68.62242 | 172.54167 | 16964 ft | 225 kts | 147° |
| 2026-04-19 08:18 | 68.60888 | 172.56328 | 16972 ft | 225 kts | 147° |
| 2026-04-19 08:19 | 68.59529 | 172.58493 | 16966 ft | 225 kts | 147° |
| 2026-04-19 08:19 | 68.58177 | 172.60643 | 16967 ft | 225 kts | 147° |
| 2026-04-19 08:19 | 68.56823 | 172.62796 | 16973 ft | 225 kts | 147° |
| 2026-04-19 08:19 | 68.55460 | 172.64960 | 16966 ft | 225 kts | 147° |
| 2026-04-19 08:20 | 68.54111 | 172.67105 | 16964 ft | 226 kts | 148° |
| 2026-04-19 08:20 | 68.52759 | 172.69269 | 16972 ft | 225 kts | 148° |
| 2026-04-19 08:20 | 68.51417 | 172.71420 | 16968 ft | 226 kts | 148° |
| 2026-04-19 08:20 | 68.50056 | 172.73596 | 16966 ft | 226 kts | 148° |
| 2026-04-19 08:21 | 68.48702 | 172.75758 | 16972 ft | 226 kts | 148° |
| 2026-04-19 08:21 | 68.47356 | 172.77904 | 16967 ft | 226 kts | 148° |
| 2026-04-19 08:21 | 68.45985 | 172.80084 | 16969 ft | 226 kts | 148° |
| 2026-04-19 08:21 | 68.44637 | 172.82225 | 16971 ft | 226 kts | 148° |
| 2026-04-19 08:22 | 68.43273 | 172.84378 | 16966 ft | 226 kts | 148° |
| 2026-04-19 08:22 | 68.41915 | 172.86504 | 16968 ft | 226 kts | 148° |
| 2026-04-19 08:22 | 68.40546 | 172.88625 | 16969 ft | 226 kts | 148° |
| 2026-04-19 08:22 | 68.39172 | 172.90733 | 16964 ft | 227 kts | 148° |
| 2026-04-19 08:23 | 68.37794 | 172.92825 | 16969 ft | 227 kts | 148° |
| 2026-04-19 08:23 | 68.36423 | 172.94885 | 16968 ft | 227 kts | 148° |
| 2026-04-19 08:23 | 68.35035 | 172.96954 | 16965 ft | 228 kts | 148° |
| 2026-04-19 08:23 | 68.33658 | 172.98987 | 16971 ft | 228 kts | 148° |
| 2026-04-19 08:24 | 68.32265 | 173.01025 | 16967 ft | 228 kts | 148° |
| 2026-04-19 08:24 | 68.30868 | 173.03056 | 16967 ft | 229 kts | 148° |
| 2026-04-19 08:24 | 68.29456 | 173.05092 | 16972 ft | 229 kts | 148° |
| 2026-04-19 08:24 | 68.28046 | 173.07114 | 16966 ft | 230 kts | 148° |
| 2026-04-19 08:25 | 68.26637 | 173.09128 | 16970 ft | 230 kts | 148° |
| 2026-04-19 08:25 | 68.25236 | 173.11131 | 16972 ft | 230 kts | 148° |
| 2026-04-19 08:25 | 68.23804 | 173.13174 | 16965 ft | 231 kts | 148° |
| 2026-04-19 08:25 | 68.22402 | 173.15173 | 16971 ft | 231 kts | 148° |
| 2026-04-19 08:26 | 68.20967 | 173.17218 | 16969 ft | 231 kts | 148° |
| 2026-04-19 08:26 | 68.19558 | 173.19222 | 16966 ft | 232 kts | 148° |
| 2026-04-19 08:26 | 68.18143 | 173.21231 | 16973 ft | 231 kts | 148° |
| 2026-04-19 08:26 | 68.16709 | 173.23267 | 16967 ft | 232 kts | 148° |
| 2026-04-19 08:27 | 68.15290 | 173.25276 | 16969 ft | 232 kts | 148° |
| 2026-04-19 08:27 | 68.13867 | 173.27290 | 16971 ft | 232 kts | 148° |
| 2026-04-19 08:27 | 68.12431 | 173.29321 | 16966 ft | 233 kts | 148° |
| 2026-04-19 08:27 | 68.10992 | 173.31352 | 16969 ft | 233 kts | 148° |
| 2026-04-19 08:28 | 68.09563 | 173.33366 | 16973 ft | 233 kts | 148° |
| 2026-04-19 08:28 | 68.08145 | 173.35381 | 16967 ft | 233 kts | 147° |
| 2026-04-19 08:28 | 68.06769 | 173.37617 | 16976 ft | 232 kts | 144° |
| 2026-04-19 08:28 | 68.05393 | 173.39928 | 16963 ft | 232 kts | 144° |
| 2026-04-19 08:29 | 68.04034 | 173.42186 | 16969 ft | 232 kts | 144° |
| 2026-04-19 08:29 | 68.02652 | 173.44469 | 16971 ft | 232 kts | 144° |
| 2026-04-19 08:29 | 68.01286 | 173.46715 | 16965 ft | 233 kts | 144° |
| 2026-04-19 08:29 | 67.99907 | 173.48979 | 16971 ft | 233 kts | 144° |
| 2026-04-19 08:30 | 67.98522 | 173.51251 | 16970 ft | 233 kts | 144° |
| 2026-04-19 08:30 | 67.97153 | 173.53496 | 16964 ft | 233 kts | 144° |
| 2026-04-19 08:30 | 67.95781 | 173.55742 | 16971 ft | 233 kts | 144° |
| 2026-04-19 08:30 | 67.94394 | 173.58009 | 16969 ft | 233 kts | 144° |
| 2026-04-19 08:31 | 67.93021 | 173.60251 | 16969 ft | 233 kts | 144° |
| 2026-04-19 08:31 | 67.91644 | 173.62495 | 16971 ft | 233 kts | 144° |
| 2026-04-19 08:31 | 67.90259 | 173.64751 | 16966 ft | 234 kts | 144° |
| 2026-04-19 08:31 | 67.88854 | 173.67033 | 16915 ft | 236 kts | 145° |
| 2026-04-19 08:32 | 67.87472 | 173.69260 | 16952 ft | 234 kts | 145° |
| 2026-04-19 08:32 | 67.86080 | 173.71492 | 16967 ft | 233 kts | 145° |
| 2026-04-19 08:32 | 67.84683 | 173.73729 | 16972 ft | 233 kts | 145° |
| 2026-04-19 08:32 | 67.83306 | 173.75934 | 16965 ft | 233 kts | 145° |
| 2026-04-19 08:33 | 67.81919 | 173.78151 | 16970 ft | 233 kts | 145° |
| 2026-04-19 08:33 | 67.80527 | 173.80373 | 16971 ft | 233 kts | 145° |
| 2026-04-19 08:33 | 67.79139 | 173.82584 | 16967 ft | 233 kts | 145° |
| 2026-04-19 08:33 | 67.77762 | 173.84778 | 16971 ft | 233 kts | 145° |
| 2026-04-19 08:34 | 67.76351 | 173.87021 | 16968 ft | 233 kts | 145° |
| 2026-04-19 08:34 | 67.74952 | 173.89075 | 16975 ft | 234 kts | 150° |
| 2026-04-19 08:34 | 67.73485 | 173.90970 | 16957 ft | 235 kts | 150° |
| 2026-04-19 08:34 | 67.72012 | 173.92864 | 16969 ft | 235 kts | 150° |
| 2026-04-19 08:35 | 67.70559 | 173.94791 | 16973 ft | 234 kts | 149° |
| 2026-04-19 08:35 | 67.69119 | 173.96797 | 16967 ft | 235 kts | 149° |
| 2026-04-19 08:35 | 67.67683 | 173.98772 | 16971 ft | 234 kts | 149° |
| 2026-04-19 08:35 | 67.66225 | 174.00764 | 16965 ft | 235 kts | 149° |
| 2026-04-19 08:36 | 67.64781 | 174.02736 | 16969 ft | 235 kts | 149° |
| 2026-04-19 08:36 | 67.63336 | 174.04707 | 16972 ft | 235 kts | 149° |
| 2026-04-19 08:36 | 67.61886 | 174.06685 | 16965 ft | 235 kts | 149° |
| 2026-04-19 08:36 | 67.60434 | 174.08662 | 16972 ft | 235 kts | 149° |
| 2026-04-19 08:37 | 67.59001 | 174.10611 | 16969 ft | 235 kts | 149° |
| 2026-04-19 08:37 | 67.57539 | 174.12596 | 16964 ft | 235 kts | 149° |
| 2026-04-19 08:37 | 67.56090 | 174.14561 | 16972 ft | 235 kts | 149° |
| 2026-04-19 08:37 | 67.54636 | 174.16530 | 16969 ft | 235 kts | 149° |
| 2026-04-19 08:38 | 67.53190 | 174.18486 | 16966 ft | 235 kts | 149° |
| 2026-04-19 08:38 | 67.51736 | 174.20451 | 16972 ft | 235 kts | 149° |
| 2026-04-19 08:38 | 67.50298 | 174.22392 | 16966 ft | 235 kts | 149° |
| 2026-04-19 08:38 | 67.48842 | 174.24355 | 16970 ft | 235 kts | 149° |
| 2026-04-19 08:39 | 67.47378 | 174.26326 | 16972 ft | 235 kts | 149° |
| 2026-04-19 08:39 | 67.45956 | 174.28394 | 16972 ft | 234 kts | 145° |
| 2026-04-19 08:39 | 67.44565 | 174.30602 | 16955 ft | 235 kts | 145° |
| 2026-04-19 08:39 | 67.43173 | 174.32785 | 16967 ft | 235 kts | 145° |
| 2026-04-19 08:40 | 67.41778 | 174.34950 | 16969 ft | 235 kts | 145° |
| 2026-04-19 08:40 | 67.40379 | 174.37118 | 16967 ft | 235 kts | 145° |
| 2026-04-19 08:40 | 67.38979 | 174.39287 | 16974 ft | 234 kts | 145° |
| 2026-04-19 08:40 | 67.37566 | 174.41473 | 16967 ft | 235 kts | 145° |
| 2026-04-19 08:41 | 67.36165 | 174.43637 | 16967 ft | 235 kts | 145° |
| 2026-04-19 08:41 | 67.34771 | 174.45789 | 16971 ft | 235 kts | 145° |
| 2026-04-19 08:41 | 67.33363 | 174.47960 | 16964 ft | 235 kts | 145° |
| 2026-04-19 08:41 | 67.31969 | 174.50104 | 16972 ft | 235 kts | 145° |
| 2026-04-19 08:42 | 67.30566 | 174.52261 | 16969 ft | 235 kts | 145° |
| 2026-04-19 08:42 | 67.29146 | 174.54352 | 16973 ft | 236 kts | 148° |
| 2026-04-19 08:42 | 67.27693 | 174.56322 | 16962 ft | 236 kts | 148° |
| 2026-04-19 08:42 | 67.26240 | 174.58298 | 16970 ft | 236 kts | 148° |
| 2026-04-19 08:43 | 67.24792 | 174.60283 | 16967 ft | 236 kts | 148° |
| 2026-04-19 08:43 | 67.23338 | 174.62280 | 16965 ft | 236 kts | 148° |
| 2026-04-19 08:43 | 67.21896 | 174.64264 | 16973 ft | 236 kts | 148° |
| 2026-04-19 08:43 | 67.20436 | 174.66270 | 16960 ft | 237 kts | 148° |
| 2026-04-19 08:44 | 67.18990 | 174.68274 | 16970 ft | 236 kts | 148° |
| 2026-04-19 08:44 | 67.17561 | 174.70259 | 16966 ft | 236 kts | 148° |
| 2026-04-19 08:44 | 67.16110 | 174.72273 | 16967 ft | 237 kts | 149° |
| 2026-04-19 08:44 | 67.14669 | 174.74269 | 16973 ft | 236 kts | 149° |
| 2026-04-19 08:45 | 67.13217 | 174.76276 | 16967 ft | 237 kts | 149° |
| 2026-04-19 08:45 | 67.11771 | 174.78270 | 16968 ft | 237 kts | 149° |
| 2026-04-19 08:45 | 67.10321 | 174.80269 | 16971 ft | 237 kts | 149° |
| 2026-04-19 08:45 | 67.08867 | 174.82269 | 16965 ft | 237 kts | 148° |
| 2026-04-19 08:46 | 67.07425 | 174.84253 | 16972 ft | 237 kts | 148° |
| 2026-04-19 08:46 | 67.05960 | 174.86264 | 16970 ft | 237 kts | 148° |
| 2026-04-19 08:46 | 67.04517 | 174.88243 | 16965 ft | 237 kts | 148° |
| 2026-04-19 08:46 | 67.03056 | 174.90245 | 16971 ft | 237 kts | 148° |
| 2026-04-19 08:47 | 67.01617 | 174.92215 | 16967 ft | 237 kts | 148° |
| 2026-04-19 08:47 | 67.00143 | 174.94228 | 16964 ft | 238 kts | 148° |
| 2026-04-19 08:47 | 66.98694 | 174.96207 | 16972 ft | 237 kts | 149° |
| 2026-04-19 08:47 | 66.97247 | 174.98180 | 16967 ft | 238 kts | 149° |
| 2026-04-19 08:48 | 66.95797 | 175.00159 | 16969 ft | 237 kts | 148° |
| 2026-04-19 08:48 | 66.94341 | 175.02150 | 16973 ft | 237 kts | 148° |
| 2026-04-19 08:48 | 66.92886 | 175.04146 | 16965 ft | 238 kts | 148° |
| 2026-04-19 08:48 | 66.91428 | 175.06151 | 16969 ft | 237 kts | 148° |
| 2026-04-19 08:49 | 66.89999 | 175.08125 | 16971 ft | 237 kts | 148° |
| 2026-04-19 08:49 | 66.88523 | 175.10153 | 16916 ft | 239 kts | 149° |
| 2026-04-19 08:49 | 66.87076 | 175.12122 | 16964 ft | 237 kts | 149° |
| 2026-04-19 08:49 | 66.85625 | 175.14090 | 16973 ft | 236 kts | 149° |
| 2026-04-19 08:50 | 66.84165 | 175.16067 | 16969 ft | 236 kts | 149° |
| 2026-04-19 08:50 | 66.82731 | 175.18007 | 16966 ft | 236 kts | 149° |
| 2026-04-19 08:50 | 66.81287 | 175.19955 | 16970 ft | 236 kts | 149° |
| 2026-04-19 08:50 | 66.79833 | 175.21915 | 16970 ft | 236 kts | 149° |
| 2026-04-19 08:51 | 66.78396 | 175.23851 | 16966 ft | 236 kts | 149° |
| 2026-04-19 08:51 | 66.76942 | 175.25804 | 16967 ft | 235 kts | 149° |
| 2026-04-19 08:51 | 66.75494 | 175.27750 | 16969 ft | 235 kts | 149° |
| 2026-04-19 08:51 | 66.74058 | 175.29674 | 16963 ft | 235 kts | 149° |
| 2026-04-19 08:52 | 66.72628 | 175.31590 | 16970 ft | 235 kts | 149° |
| 2026-04-19 08:52 | 66.71181 | 175.33528 | 16969 ft | 235 kts | 149° |
| 2026-04-19 08:52 | 66.69731 | 175.35465 | 16963 ft | 235 kts | 149° |
| 2026-04-19 08:52 | 66.68286 | 175.37393 | 16970 ft | 235 kts | 149° |
| 2026-04-19 08:53 | 66.66856 | 175.39300 | 16969 ft | 235 kts | 149° |
| 2026-04-19 08:53 | 66.65411 | 175.41228 | 16964 ft | 235 kts | 149° |
| 2026-04-19 08:53 | 66.63958 | 175.43162 | 16970 ft | 234 kts | 149° |
| 2026-04-19 08:53 | 66.62519 | 175.45077 | 16966 ft | 235 kts | 149° |
| 2026-04-19 08:54 | 66.61087 | 175.46982 | 16966 ft | 235 kts | 149° |
| 2026-04-19 08:54 | 66.59650 | 175.48892 | 16972 ft | 234 kts | 149° |
| 2026-04-19 08:54 | 66.58211 | 175.50804 | 16966 ft | 235 kts | 149° |
| 2026-04-19 08:54 | 66.56760 | 175.52730 | 16969 ft | 235 kts | 149° |
| 2026-04-19 08:55 | 66.55312 | 175.54652 | 16972 ft | 234 kts | 149° |
| 2026-04-19 08:55 | 66.53889 | 175.56538 | 16966 ft | 235 kts | 149° |
| 2026-04-19 08:55 | 66.52443 | 175.58455 | 16972 ft | 234 kts | 149° |
| 2026-04-19 08:55 | 66.51005 | 175.60359 | 16968 ft | 235 kts | 149° |
| 2026-04-19 08:56 | 66.49571 | 175.62259 | 16967 ft | 235 kts | 149° |
| 2026-04-19 08:56 | 66.48122 | 175.64175 | 16971 ft | 235 kts | 149° |
| 2026-04-19 08:56 | 66.46667 | 175.66103 | 16962 ft | 235 kts | 149° |
| 2026-04-19 08:56 | 66.45241 | 175.68018 | 16968 ft | 235 kts | 149° |
| 2026-04-19 08:57 | 66.43807 | 175.69961 | 16970 ft | 235 kts | 149° |
| 2026-04-19 08:57 | 66.42375 | 175.71909 | 16965 ft | 235 kts | 149° |
| 2026-04-19 08:57 | 66.40949 | 175.73845 | 16972 ft | 235 kts | 149° |
| 2026-04-19 08:57 | 66.39504 | 175.75800 | 16969 ft | 235 kts | 149° |
| 2026-04-19 08:58 | 66.38063 | 175.77747 | 16964 ft | 235 kts | 149° |
| 2026-04-19 08:58 | 66.36643 | 175.79663 | 16971 ft | 235 kts | 149° |
| 2026-04-19 08:58 | 66.35189 | 175.81622 | 16967 ft | 235 kts | 149° |
| 2026-04-19 08:58 | 66.33749 | 175.83560 | 16967 ft | 235 kts | 149° |
| 2026-04-19 08:59 | 66.32305 | 175.85443 | 16980 ft | 235 kts | 151° |
| 2026-04-19 08:59 | 66.30840 | 175.87254 | 16969 ft | 236 kts | 151° |
| 2026-04-19 08:59 | 66.29377 | 175.89090 | 16973 ft | 236 kts | 151° |
| 2026-04-19 08:59 | 66.27925 | 175.90924 | 16966 ft | 236 kts | 151° |
| 2026-04-19 09:00 | 66.26468 | 175.92763 | 16970 ft | 236 kts | 151° |
| 2026-04-19 09:00 | 66.25003 | 175.94606 | 16970 ft | 236 kts | 151° |
| 2026-04-19 09:00 | 66.23533 | 175.96452 | 16964 ft | 236 kts | 151° |
| 2026-04-19 09:00 | 66.22079 | 175.98274 | 16970 ft | 236 kts | 151° |
| 2026-04-19 09:01 | 66.20606 | 176.00119 | 16968 ft | 236 kts | 151° |
| 2026-04-19 09:01 | 66.19150 | 176.01941 | 16964 ft | 236 kts | 151° |
| 2026-04-19 09:01 | 66.17684 | 176.03773 | 16972 ft | 236 kts | 151° |
| 2026-04-19 09:01 | 66.16218 | 176.05603 | 16968 ft | 236 kts | 151° |
| 2026-04-19 09:02 | 66.14754 | 176.07426 | 16969 ft | 236 kts | 151° |
| 2026-04-19 09:02 | 66.13289 | 176.09250 | 16971 ft | 236 kts | 151° |
| 2026-04-19 09:02 | 66.11823 | 176.11073 | 16965 ft | 236 kts | 151° |
| 2026-04-19 09:02 | 66.10367 | 176.12882 | 16968 ft | 236 kts | 151° |
| 2026-04-19 09:03 | 66.08887 | 176.14717 | 16972 ft | 236 kts | 151° |
| 2026-04-19 09:03 | 66.07424 | 176.16528 | 16966 ft | 237 kts | 151° |
| 2026-04-19 09:03 | 66.05952 | 176.18350 | 16970 ft | 236 kts | 151° |
| 2026-04-19 09:03 | 66.04494 | 176.20152 | 16972 ft | 236 kts | 151° |
| 2026-04-19 09:04 | 66.03020 | 176.21971 | 16967 ft | 237 kts | 151° |
| 2026-04-19 09:04 | 66.01556 | 176.23776 | 16971 ft | 237 kts | 151° |
| 2026-04-19 09:04 | 66.00073 | 176.25604 | 16968 ft | 237 kts | 151° |
| 2026-04-19 09:04 | 65.98607 | 176.27408 | 16964 ft | 237 kts | 151° |
| 2026-04-19 09:05 | 65.97140 | 176.29210 | 16972 ft | 237 kts | 151° |
| 2026-04-19 09:05 | 65.95673 | 176.31010 | 16967 ft | 237 kts | 151° |
| 2026-04-19 09:05 | 65.94189 | 176.32828 | 16967 ft | 237 kts | 151° |
| 2026-04-19 09:05 | 65.92725 | 176.34621 | 16971 ft | 237 kts | 151° |
| 2026-04-19 09:06 | 65.91258 | 176.36415 | 16964 ft | 237 kts | 151° |
| 2026-04-19 09:06 | 65.89777 | 176.38223 | 16968 ft | 237 kts | 151° |
| 2026-04-19 09:06 | 65.88301 | 176.40008 | 16916 ft | 239 kts | 151° |
| 2026-04-19 09:06 | 65.86810 | 176.41789 | 16967 ft | 237 kts | 151° |
| 2026-04-19 09:07 | 65.85347 | 176.43527 | 16968 ft | 237 kts | 151° |
| 2026-04-19 09:07 | 65.83856 | 176.45291 | 16972 ft | 236 kts | 151° |
| 2026-04-19 09:07 | 65.82378 | 176.47032 | 16966 ft | 237 kts | 151° |
| 2026-04-19 09:07 | 65.80891 | 176.48778 | 16969 ft | 237 kts | 151° |
| 2026-04-19 09:08 | 65.79425 | 176.50493 | 16970 ft | 237 kts | 151° |
| 2026-04-19 09:08 | 65.77924 | 176.52241 | 16964 ft | 237 kts | 151° |
| 2026-04-19 09:08 | 65.76455 | 176.53947 | 16969 ft | 237 kts | 151° |
| 2026-04-19 09:08 | 65.74964 | 176.55672 | 16971 ft | 237 kts | 151° |
| 2026-04-19 09:09 | 65.73480 | 176.57384 | 16966 ft | 237 kts | 152° |
| 2026-04-19 09:09 | 65.71980 | 176.59105 | 16972 ft | 237 kts | 152° |
| 2026-04-19 09:09 | 65.70507 | 176.60815 | 16971 ft | 236 kts | 150° |
| 2026-04-19 09:09 | 65.69041 | 176.62646 | 16972 ft | 236 kts | 150° |
| 2026-04-19 09:10 | 65.67590 | 176.64427 | 16969 ft | 237 kts | 150° |
| 2026-04-19 09:10 | 65.66105 | 176.66234 | 16956 ft | 237 kts | 151° |
| 2026-04-19 09:10 | 65.64635 | 176.68039 | 16963 ft | 237 kts | 151° |
| 2026-04-19 09:10 | 65.63184 | 176.69830 | 16967 ft | 237 kts | 151° |
| 2026-04-19 09:11 | 65.61704 | 176.71657 | 16967 ft | 237 kts | 151° |
| 2026-04-19 09:11 | 65.60279 | 176.73407 | 16915 ft | 225 kts | 151° |
| 2026-04-19 09:11 | 65.58909 | 176.75076 | 16706 ft | 216 kts | 151° |
| 2026-04-19 09:11 | 65.57591 | 176.76677 | 16436 ft | 210 kts | 151° |
| 2026-04-19 09:12 | 65.56291 | 176.78255 | 16136 ft | 206 kts | 151° |
| 2026-04-19 09:12 | 65.55031 | 176.79784 | 15823 ft | 203 kts | 151° |
| 2026-04-19 09:12 | 65.53777 | 176.81303 | 15499 ft | 201 kts | 151° |
| 2026-04-19 09:12 | 65.52529 | 176.82817 | 15168 ft | 200 kts | 151° |
| 2026-04-19 09:13 | 65.51294 | 176.84317 | 14836 ft | 198 kts | 151° |
| 2026-04-19 09:13 | 65.50083 | 176.85788 | 14508 ft | 197 kts | 151° |
| 2026-04-19 09:13 | 65.48863 | 176.87273 | 14175 ft | 196 kts | 151° |
| 2026-04-19 09:13 | 65.47655 | 176.88745 | 13847 ft | 195 kts | 151° |
| 2026-04-19 09:14 | 65.46436 | 176.90234 | 13516 ft | 194 kts | 151° |
| 2026-04-19 09:14 | 65.45241 | 176.91693 | 13193 ft | 194 kts | 151° |
| 2026-04-19 09:14 | 65.44037 | 176.93127 | 12875 ft | 193 kts | 154° |
| 2026-04-19 09:14 | 65.42798 | 176.94315 | 12568 ft | 192 kts | 157° |
| 2026-04-19 09:15 | 65.41569 | 176.95451 | 12252 ft | 192 kts | 156° |
| 2026-04-19 09:15 | 65.40329 | 176.96611 | 11937 ft | 191 kts | 156° |
| 2026-04-19 09:15 | 65.37863 | 176.98920 | 11314 ft | 190 kts | 156° |
| 2026-04-19 09:16 | 65.36633 | 177.00049 | 11006 ft | 190 kts | 156° |
| 2026-04-19 09:16 | 65.35402 | 177.01163 | 10701 ft | 189 kts | 156° |
| 2026-04-19 09:16 | 65.34189 | 177.02245 | 10403 ft | 189 kts | 156° |
| 2026-04-19 09:16 | 65.32961 | 177.03323 | 10101 ft | 188 kts | 156° |
| 2026-04-19 09:17 | 65.31727 | 177.04395 | 9805 ft | 188 kts | 156° |
| 2026-04-19 09:17 | 65.30512 | 177.05435 | 9509 ft | 187 kts | 156° |
| 2026-04-19 09:17 | 65.29285 | 177.06471 | 9210 ft | 187 kts | 156° |
| 2026-04-19 09:17 | 65.28072 | 177.07480 | 8919 ft | 186 kts | 156° |
| 2026-04-19 09:18 | 65.26855 | 177.08478 | 8629 ft | 185 kts | 156° |
| 2026-04-19 09:18 | 65.25628 | 177.09470 | 8338 ft | 185 kts | 156° |
| 2026-04-19 09:18 | 65.24413 | 177.10446 | 8046 ft | 184 kts | 156° |
| 2026-04-19 09:18 | 65.23203 | 177.11406 | 7760 ft | 184 kts | 156° |
| 2026-04-19 09:19 | 65.21999 | 177.12347 | 7467 ft | 183 kts | 156° |
| 2026-04-19 09:19 | 65.20788 | 177.13280 | 7177 ft | 183 kts | 156° |
| 2026-04-19 09:19 | 65.19572 | 177.14201 | 6891 ft | 183 kts | 156° |
| 2026-04-19 09:19 | 65.18375 | 177.15097 | 6604 ft | 183 kts | 156° |
| 2026-04-19 09:20 | 65.17156 | 177.15996 | 6323 ft | 182 kts | 156° |
| 2026-04-19 09:20 | 65.15947 | 177.16878 | 6048 ft | 182 kts | 157° |
| 2026-04-19 09:20 | 65.14750 | 177.17746 | 5777 ft | 181 kts | 157° |
| 2026-04-19 09:20 | 65.13554 | 177.18620 | 5506 ft | 180 kts | 156° |
| 2026-04-19 09:21 | 65.12345 | 177.19514 | 5296 ft | 185 kts | 156° |
| 2026-04-19 09:21 | 65.11096 | 177.20451 | 5195 ft | 191 kts | 156° |
| 2026-04-19 09:21 | 65.09835 | 177.21394 | 5162 ft | 191 kts | 156° |
| 2026-04-19 09:21 | 65.08584 | 177.22321 | 5191 ft | 188 kts | 156° |
| 2026-04-19 09:22 | 65.07357 | 177.23375 | 5204 ft | 185 kts | 152° |
| 2026-04-19 09:22 | 65.06173 | 177.24525 | 5201 ft | 184 kts | 151° |
| 2026-04-19 09:22 | 65.04993 | 177.25664 | 5202 ft | 183 kts | 152° |
| 2026-04-19 09:22 | 65.03824 | 177.26785 | 5204 ft | 182 kts | 152° |
| 2026-04-19 09:23 | 65.02643 | 177.27911 | 5206 ft | 181 kts | 152° |
| 2026-04-19 09:23 | 65.01466 | 177.29024 | 5204 ft | 181 kts | 152° |
| 2026-04-19 09:23 | 65.00311 | 177.30112 | 5202 ft | 180 kts | 152° |
| 2026-04-19 09:23 | 64.99153 | 177.31197 | 5203 ft | 180 kts | 152° |
| 2026-04-19 09:24 | 64.97983 | 177.32295 | 5209 ft | 180 kts | 152° |
| 2026-04-19 09:24 | 64.96811 | 177.33395 | 5212 ft | 183 kts | 152° |
| 2026-04-19 09:24 | 64.95618 | 177.34520 | 5209 ft | 185 kts | 152° |
| 2026-04-19 09:24 | 64.94429 | 177.35641 | 5210 ft | 187 kts | 152° |
| 2026-04-19 09:25 | 64.93204 | 177.36801 | 5209 ft | 189 kts | 152° |
| 2026-04-19 09:25 | 64.91981 | 177.37961 | 5206 ft | 191 kts | 152° |
| 2026-04-19 09:25 | 64.90746 | 177.39140 | 5207 ft | 192 kts | 150° |
| 2026-04-19 09:25 | 64.89566 | 177.40514 | 5197 ft | 192 kts | 145° |
| 2026-04-19 09:26 | 64.88357 | 177.42015 | 5162 ft | 194 kts | 146° |
| 2026-04-19 09:26 | 64.87180 | 177.43442 | 5186 ft | 191 kts | 146° |
| 2026-04-19 09:26 | 64.86007 | 177.44847 | 5194 ft | 188 kts | 146° |
| 2026-04-19 09:26 | 64.84834 | 177.46239 | 5197 ft | 186 kts | 146° |
| 2026-04-19 09:27 | 64.83678 | 177.47597 | 5200 ft | 185 kts | 146° |
| 2026-04-19 09:27 | 64.82547 | 177.48912 | 5202 ft | 183 kts | 146° |
| 2026-04-19 09:27 | 64.81403 | 177.50229 | 5201 ft | 182 kts | 146° |
| 2026-04-19 09:27 | 64.80264 | 177.51532 | 5203 ft | 180 kts | 147° |
| 2026-04-19 09:28 | 64.79138 | 177.52806 | 5203 ft | 179 kts | 147° |
| 2026-04-19 09:28 | 64.78027 | 177.54054 | 5202 ft | 178 kts | 147° |
| 2026-04-19 09:28 | 64.76915 | 177.55289 | 5204 ft | 177 kts | 147° |
| 2026-04-19 09:28 | 64.75787 | 177.56537 | 5216 ft | 180 kts | 147° |
| 2026-04-19 09:29 | 64.74649 | 177.57796 | 5214 ft | 183 kts | 147° |
| 2026-04-19 09:29 | 64.73498 | 177.59065 | 5211 ft | 186 kts | 147° |
| 2026-04-19 09:29 | 64.72315 | 177.60370 | 5210 ft | 189 kts | 147° |
| 2026-04-19 09:29 | 64.71124 | 177.61681 | 5208 ft | 191 kts | 147° |
| 2026-04-19 09:30 | 64.69913 | 177.63011 | 5209 ft | 194 kts | 148° |
| 2026-04-19 09:30 | 64.68683 | 177.64362 | 5208 ft | 196 kts | 148° |
| 2026-04-19 09:30 | 64.67376 | 177.65276 | 5175 ft | 196 kts | 171° |
| 2026-04-19 09:30 | 64.66038 | 177.64986 | 5003 ft | 192 kts | 196° |
| 2026-04-19 09:31 | 64.64816 | 177.63867 | 4800 ft | 188 kts | 202° |
| 2026-04-19 09:31 | 64.63615 | 177.62659 | 4561 ft | 185 kts | 202° |
| 2026-04-19 09:31 | 64.62449 | 177.61493 | 4356 ft | 180 kts | 202° |
| 2026-04-19 09:31 | 64.61327 | 177.60370 | 4180 ft | 173 kts | 202° |
| 2026-04-19 09:32 | 64.60246 | 177.59285 | 3959 ft | 169 kts | 202° |
| 2026-04-19 09:32 | 64.59173 | 177.58212 | 3725 ft | 169 kts | 201° |
| 2026-04-19 09:32 | 64.58068 | 177.57115 | 3662 ft | 172 kts | 202° |
| 2026-04-19 09:32 | 64.56980 | 177.56029 | 3722 ft | 170 kts | 202° |
| 2026-04-19 09:33 | 64.55900 | 177.54954 | 3752 ft | 170 kts | 202° |
| 2026-04-19 09:33 | 64.54811 | 177.53868 | 3771 ft | 171 kts | 202° |
| 2026-04-19 09:33 | 64.53710 | 177.52774 | 3771 ft | 173 kts | 202° |
| 2026-04-19 09:33 | 64.52633 | 177.51704 | 3885 ft | 164 kts | 202° |
| 2026-04-19 09:34 | 64.51576 | 177.50658 | 3822 ft | 169 kts | 202° |
| 2026-04-19 09:34 | 64.50481 | 177.49576 | 3786 ft | 171 kts | 202° |
| 2026-04-19 09:34 | 64.49384 | 177.48503 | 3774 ft | 171 kts | 201° |
| 2026-04-19 09:34 | 64.48290 | 177.47453 | 3763 ft | 171 kts | 201° |
| 2026-04-19 09:35 | 64.47187 | 177.46414 | 3757 ft | 171 kts | 200° |
| 2026-04-19 09:35 | 64.46090 | 177.45399 | 3755 ft | 171 kts | 200° |
| 2026-04-19 09:35 | 64.44978 | 177.44391 | 3755 ft | 170 kts | 200° |
| 2026-04-19 09:35 | 64.43872 | 177.43408 | 3754 ft | 169 kts | 199° |
| 2026-04-19 09:36 | 64.42779 | 177.42456 | 3753 ft | 169 kts | 199° |
| 2026-04-19 09:36 | 64.41660 | 177.41692 | 3747 ft | 166 kts | 181° |
| 2026-04-19 09:36 | 64.40562 | 177.42020 | 3733 ft | 156 kts | 149° |
| 2026-04-19 09:36 | 64.39741 | 177.43422 | 3728 ft | 140 kts | 117° |
| 2026-04-19 09:37 | 64.39414 | 177.45360 | 3728 ft | 124 kts | 84° |
| 2026-04-19 09:37 | 64.39621 | 177.47145 | 3728 ft | 111 kts | 50° |
| 2026-04-19 09:37 | 64.40240 | 177.48119 | 3729 ft | 109 kts | 16° |
| 2026-04-19 09:37 | 64.40981 | 177.48325 | 3753 ft | 106 kts | 15° |
| 2026-04-19 09:38 | 64.41667 | 177.48898 | 3751 ft | 104 kts | 29° |
| 2026-04-19 09:38 | 64.42264 | 177.49654 | 3576 ft | 94 kts | 30° |
| 2026-04-19 09:38 | 64.42848 | 177.50407 | 3365 ft | 101 kts | 30° |
| 2026-04-19 09:38 | 64.43472 | 177.51198 | 3176 ft | 100 kts | 30° |
| 2026-04-19 09:39 | 64.44072 | 177.51961 | 2960 ft | 98 kts | 30° |
| 2026-04-19 09:39 | 64.44664 | 177.52699 | 2736 ft | 97 kts | 26° |
| 2026-04-19 09:39 | 64.45289 | 177.53210 | 2516 ft | 96 kts | 21° |
| 2026-04-19 09:39 | 64.45945 | 177.53691 | 2368 ft | 101 kts | 21° |
| 2026-04-19 09:40 | 64.46609 | 177.54193 | 2413 ft | 98 kts | 21° |
| 2026-04-19 09:40 | 64.47252 | 177.54681 | 2429 ft | 97 kts | 21° |
| 2026-04-19 09:40 | 64.47893 | 177.55171 | 2442 ft | 97 kts | 21° |
| 2026-04-19 09:40 | 64.48534 | 177.55659 | 2449 ft | 97 kts | 21° |
| 2026-04-19 09:41 | 64.49183 | 177.56154 | 2462 ft | 96 kts | 21° |
| 2026-04-19 09:41 | 64.49747 | 177.56564 | 2592 ft | 78 kts | 21° |
| 2026-04-19 09:41 | 64.50285 | 177.56940 | 2525 ft | 82 kts | 21° |
| 2026-04-19 09:41 | 64.50839 | 177.57324 | 2486 ft | 84 kts | 20° |
| 2026-04-19 09:42 | 64.51395 | 177.57704 | 2468 ft | 83 kts | 20° |
| 2026-04-19 09:42 | 64.51939 | 177.58124 | 2451 ft | 82 kts | 27° |
| 2026-04-19 09:42 | 64.52436 | 177.58751 | 2442 ft | 80 kts | 29° |
| 2026-04-19 09:42 | 64.52922 | 177.59354 | 2441 ft | 79 kts | 28° |
| 2026-04-19 09:43 | 64.53403 | 177.59935 | 2440 ft | 77 kts | 28° |
| 2026-04-19 09:43 | 64.53875 | 177.60495 | 2439 ft | 75 kts | 28° |
| 2026-04-19 09:43 | 64.54341 | 177.61038 | 2439 ft | 73 kts | 28° |
| 2026-04-19 09:43 | 64.54795 | 177.61562 | 2437 ft | 72 kts | 28° |
| 2026-04-19 09:44 | 64.55239 | 177.62067 | 2434 ft | 70 kts | 27° |
| 2026-04-19 09:44 | 64.55667 | 177.62550 | 2428 ft | 68 kts | 27° |
| 2026-04-19 09:44 | 64.56094 | 177.63031 | 2415 ft | 66 kts | 27° |
| 2026-04-19 09:44 | 64.56491 | 177.63490 | 2412 ft | 61 kts | 29° |
| 2026-04-19 09:45 | 64.56875 | 177.63840 | 2427 ft | 59 kts | 14° |
| 2026-04-19 09:45 | 64.57287 | 177.63972 | 2452 ft | 60 kts | 11° |
| 2026-04-19 09:45 | 64.57705 | 177.64061 | 2508 ft | 62 kts | 11° |
| 2026-04-19 09:45 | 64.58141 | 177.64180 | 2576 ft | 62 kts | 21° |
| 2026-04-19 09:46 | 64.58479 | 177.64767 | 2649 ft | 61 kts | 36° |
| 2026-04-19 09:46 | 64.58834 | 177.65420 | 2408 ft | 75 kts | 34° |
| 2026-04-19 09:46 | 64.59287 | 177.65887 | 2301 ft | 72 kts | 10° |
| 2026-04-19 09:46 | 64.59792 | 177.66010 | 2181 ft | 69 kts | 23° |
| 2026-04-19 09:47 | 64.60259 | 177.66280 | 2090 ft | 69 kts | 12° |
| 2026-04-19 09:47 | 64.60756 | 177.66244 | 1988 ft | 69 kts | 13° |
| 2026-04-19 09:47 | 64.61211 | 177.66489 | 1901 ft | 67 kts | 21° |
| 2026-04-19 09:47 | 64.61661 | 177.66798 | 1819 ft | 67 kts | 18° |
| 2026-04-19 09:48 | 64.62112 | 177.67081 | 1743 ft | 66 kts | 22° |
| 2026-04-19 09:48 | 64.62545 | 177.67397 | 1762 ft | 60 kts | 22° |
| 2026-04-19 09:48 | 64.62942 | 177.67744 | 1673 ft | 69 kts | 16° |
| 2026-04-19 09:48 | 64.63408 | 177.67937 | 1649 ft | 64 kts | 16° |
| 2026-04-19 09:49 | 64.63845 | 177.68140 | 1510 ft | 67 kts | 18° |
| 2026-04-19 09:49 | 64.64311 | 177.68356 | 1347 ft | 68 kts | 18° |
| 2026-04-19 09:49 | 64.64764 | 177.68614 | 1217 ft | 67 kts | 21° |
| 2026-04-19 09:49 | 64.65209 | 177.68933 | 1100 ft | 66 kts | 21° |
| 2026-04-19 09:50 | 64.65633 | 177.69253 | 1018 ft | 64 kts | 23° |
| 2026-04-19 09:50 | 64.66070 | 177.69542 | 908 ft | 65 kts | 18° |
| 2026-04-19 09:50 | 64.66504 | 177.69759 | 865 ft | 62 kts | 20° |
| 2026-04-19 09:50 | 64.66945 | 177.70027 | 768 ft | 67 kts | 23° |
| 2026-04-19 09:51 | 64.67383 | 177.70285 | 775 ft | 64 kts | 21° |
| 2026-04-19 09:51 | 64.67823 | 177.70532 | 743 ft | 65 kts | 25° |
| 2026-04-19 09:51 | 64.68242 | 177.70901 | 721 ft | 65 kts | 24° |
| 2026-04-19 09:51 | 64.68674 | 177.71190 | 701 ft | 67 kts | 15° |
| 2026-04-19 09:52 | 64.69126 | 177.71378 | 678 ft | 63 kts | 21° |
| 2026-04-19 09:52 | 64.69569 | 177.71608 | 496 ft | 67 kts | 27° |
| 2026-04-19 09:52 | 64.69988 | 177.72012 | 471 ft | 63 kts | 27° |
| 2026-04-19 09:52 | 64.70406 | 177.72340 | 393 ft | 63 kts | 22° |
| 2026-04-19 09:53 | 64.70843 | 177.72584 | 325 ft | 66 kts | 21° |
| 2026-04-19 09:53 | 64.71310 | 177.72728 | 298 ft | 66 kts | 16° |
| 2026-04-19 09:53 | 64.71741 | 177.72981 | 161 ft | 64 kts | 28° |
| 2026-04-19 09:53 | 64.72156 | 177.73228 | 228 ft | 59 kts | 14° |
| 2026-04-19 09:54 | 64.72462 | 177.73503 | 147 ft | 27 kts | 38° |